Wilmer, Texas
Current Conditions -  °F | °C
As of 5:55 PM on Sunday 23 Nov 2014 (Local Time) from KLNC Reporting Station
Clear Clear  
Wind Chill: 66°   Ceiling: Unl
Heat Index: 66°   Visibility: 10mi
Dew Point: 42°   Wind: 23mph
Humidity: 41%   Direction: 310°NW
Pressure: 29.54"   Gusts: 31mph
Location:  32.59°N, 96.69°W
Report Text: KLNC 232355Z AUTO 31020G27KT 10SM CLR 19/05 A2954 RMK AO2 T01900053 10251 20190
Loading
Personal Weather Stations






























Interactive Weather Map New forecast layout! Learn more

10-Day Weather Forecast

Advertisements
Track Severe Weather on mobile